Time;durP1;ratioP1;P1;durP2;ratioP2;P2;SDS_P1;SDS_P2;PMS_P1;PMS_P2;Temp;Humidity;BMP_temperature;BMP_pressure;BME280_temperature;BME280_humidity;BME280_pressure;Samples;Min_cycle;Max_cycle;Signal;HPM_P1;HPM_P2
2022/05/02 00:00:17;;;;;;;6.45;3.92;;;;;;;13.41;56.09;94726.53;4144321;28;20057;-54
2022/05/02 00:02:18;;;;;;;7.85;4.60;;;;;;;13.38;56.00;94720.78;4144074;28;20046;-50
2022/05/02 00:04:20;;;;;;;6.10;4.53;;;;;;;13.43;56.00;94731.63;4143888;28;20176;-50
2022/05/02 00:06:23;;;;;;;6.22;4.65;;;;;;;13.35;56.38;94719.34;4144170;28;20058;-54
2022/05/02 00:08:25;;;;;;;5.68;4.43;;;;;;;13.42;56.15;94728.19;4142778;28;20057;-54
2022/05/02 00:10:28;;;;;;;5.97;4.87;;;;;;;13.41;56.11;94729.16;4144258;28;20054;-51
2022/05/02 00:12:30;;;;;;;6.82;5.05;;;;;;;13.43;55.69;94721.91;4144282;28;20294;-55
2022/05/02 00:14:31;;;;;;;6.88;5.28;;;;;;;13.43;56.02;94723.72;4143509;28;20058;-52
2022/05/02 00:16:35;;;;;;;5.32;4.57;;;;;;;13.32;56.35;94722.31;4139101;28;20423;-54
2022/05/02 00:18:37;;;;;;;13.25;5.40;;;;;;;13.31;56.15;94726.78;4143909;28;20050;-55
2022/05/02 00:20:40;;;;;;;7.65;5.47;;;;;;;13.38;56.10;94721.63;4142741;28;20073;-52
2022/05/02 00:22:42;;;;;;;7.40;5.60;;;;;;;13.38;56.24;94718.16;4144130;28;20070;-55
2022/05/02 00:24:44;;;;;;;7.43;5.40;;;;;;;13.40;56.51;94722.28;4142861;28;20108;-52
2022/05/02 00:26:46;;;;;;;7.18;5.40;;;;;;;13.44;56.22;94715.66;4143706;28;20656;-52
2022/05/02 00:28:48;;;;;;;7.35;5.75;;;;;;;13.43;56.01;94713.22;4144240;28;20613;-54
2022/05/02 00:30:50;;;;;;;6.78;5.00;;;;;;;13.50;56.13;94709.69;4143601;28;20135;-53
2022/05/02 00:32:52;;;;;;;8.43;5.72;;;;;;;13.41;56.18;94708.13;4143492;28;20049;-54
2022/05/02 00:34:54;;;;;;;6.50;4.88;;;;;;;13.42;56.17;94711.56;4143846;28;20116;-52
2022/05/02 00:36:56;;;;;;;5.93;4.95;;;;;;;13.39;56.27;94711.91;4143855;28;20422;-51
2022/05/02 00:38:57;;;;;;;5.90;4.95;;;;;;;13.23;56.57;94713.66;4142393;28;20065;-52
2022/05/02 00:40:59;;;;;;;9.05;5.30;;;;;;;13.25;56.54;94709.03;4143714;28;20053;-52
2022/05/02 00:43:01;;;;;;;8.60;5.35;;;;;;;13.21;56.70;94709.56;4142180;28;20173;-53
2022/05/02 00:45:10;;;;;;;5.60;4.78;;;;;;;13.21;56.46;94709.56;4143457;28;20458;-51
2022/05/02 00:47:15;;;;;;;5.85;4.60;;;;;;;13.26;56.30;94710.66;4143570;28;20560;-53
2022/05/02 00:49:17;;;;;;;5.53;4.53;;;;;;;13.29;56.07;94706.88;4127343;28;20364;-52
2022/05/02 00:51:19;;;;;;;5.90;4.60;;;;;;;13.30;56.06;94705.91;4132726;28;20483;-52
2022/05/02 00:53:23;;;;;;;5.53;4.40;;;;;;;13.32;55.85;94704.72;4141850;28;20128;-51
2022/05/02 00:55:24;;;;;;;7.68;5.40;;;;;;;13.35;56.00;94706.19;4142086;28;20053;-54
2022/05/02 00:57:26;;;;;;;5.57;4.60;;;;;;;13.26;56.13;94697.50;4141894;28;20049;-54
2022/05/02 00:59:28;;;;;;;6.43;4.47;;;;;;;13.10;56.49;94695.00;4143644;28;20482;-51
2022/05/02 01:01:30;;;;;;;7.45;4.60;;;;;;;13.09;56.58;94698.59;4143287;28;20065;-48
2022/05/02 01:03:33;;;;;;;6.43;4.45;;;;;;;13.13;56.45;94691.19;4141739;28;20062;-52
2022/05/02 01:07:59;;;;;;;6.07;4.45;;;;;;;13.06;56.55;94683.19;4141984;28;19925;-53
2022/05/02 01:10:01;;;;;;;5.05;4.30;;;;;;;13.10;56.74;94690.56;4143234;28;20112;-52
2022/05/02 01:12:07;;;;;;;6.75;4.20;;;;;;;13.16;56.54;94688.19;4143141;28;20104;-52
2022/05/02 01:14:09;;;;;;;5.82;4.35;;;;;;;13.18;56.46;94688.84;4143062;28;20111;-53
2022/05/02 01:16:23;;;;;;;5.25;4.25;;;;;;;13.10;56.57;94685.28;4139285;28;20039;-53
2022/05/02 01:18:25;;;;;;;5.20;4.55;;;;;;;13.18;56.41;94687.03;4135962;28;20057;-52
2022/05/02 01:20:27;;;;;;;6.07;4.43;;;;;;;13.26;56.03;94686.97;4142813;28;20133;-54
2022/05/02 01:22:28;;;;;;;4.88;4.10;;;;;;;13.22;56.10;94687.50;4157802;28;20122;-56
2022/05/02 01:24:44;;;;;;;6.50;4.35;;;;;;;13.09;56.42;94685.44;4141542;28;20108;-51
2022/05/02 01:26:46;;;;;;;5.97;4.22;;;;;;;12.95;56.58;94675.69;4142188;28;20163;-53
2022/05/02 01:28:55;;;;;;;5.32;4.18;;;;;;;12.89;56.56;94670.13;4142653;28;20116;-55
2022/05/02 01:30:57;;;;;;;7.13;4.30;;;;;;;12.93;56.70;94667.97;4142908;28;20056;-53
2022/05/02 01:32:59;;;;;;;6.35;4.22;;;;;;;13.01;56.58;94674.97;4132572;28;20092;-55
2022/05/02 01:35:00;;;;;;;6.15;3.90;;;;;;;13.02;56.85;94664.31;4134654;28;20116;-53
2022/05/02 01:37:03;;;;;;;6.63;3.95;;;;;;;13.02;56.81;94666.94;4143032;28;20054;-56
2022/05/02 01:39:05;;;;;;;5.45;4.18;;;;;;;13.02;56.60;94663.50;4141433;28;20080;-56
2022/05/02 01:41:07;;;;;;;7.35;3.90;;;;;;;13.06;56.62;94660.31;4142277;28;20057;-54
2022/05/02 01:43:10;;;;;;;5.22;4.28;;;;;;;13.07;56.57;94661.13;4142145;28;20160;-54
2022/05/02 01:45:11;;;;;;;5.70;4.10;;;;;;;13.11;56.27;94657.97;4142402;28;20817;-52
2022/05/02 01:47:13;;;;;;;4.55;3.72;;;;;;;13.14;56.23;94654.19;4142389;28;20056;-54
2022/05/02 01:49:15;;;;;;;6.00;3.70;;;;;;;13.17;55.95;94660.91;4141795;28;20061;-55
2022/05/02 01:51:17;;;;;;;4.80;3.85;;;;;;;13.19;56.08;94656.31;4142432;28;20057;-54
2022/05/02 01:53:18;;;;;;;6.65;4.00;;;;;;;13.20;56.04;94656.09;4141062;28;20054;-54
2022/05/02 01:55:20;;;;;;;6.07;3.97;;;;;;;13.14;56.05;94656.00;4142327;28;20054;-54
2022/05/02 01:57:22;;;;;;;6.82;3.78;;;;;;;13.11;56.34;94650.09;4142553;28;20498;-54
2022/05/02 01:59:24;;;;;;;5.00;3.00;;;;;;;13.06;56.16;94652.44;4142815;28;20054;-53
2022/05/02 02:01:26;;;;;;;5.13;3.80;;;;;;;13.06;56.20;94652.44;4142368;28;20049;-53
2022/05/02 02:03:28;;;;;;;6.93;3.30;;;;;;;13.06;56.63;94652.44;4140481;28;20161;-53
2022/05/02 02:05:48;;;;;;;4.70;3.53;;;;;;;13.04;56.90;94641.28;4142352;28;20628;-52
2022/05/02 02:07:50;;;;;;;4.53;3.30;;;;;;;12.96;56.68;94641.31;4141351;28;20058;-54
2022/05/02 02:09:51;;;;;;;5.40;3.17;;;;;;;12.96;56.75;94640.50;4141983;28;20056;-54
2022/05/02 02:11:53;;;;;;;5.63;3.55;;;;;;;12.81;57.08;94637.81;4142404;28;20054;-54
2022/05/02 02:13:55;;;;;;;6.38;4.00;;;;;;;12.78;57.32;94633.72;4142285;28;20049;-50
2022/05/02 02:15:57;;;;;;;4.95;4.00;;;;;;;12.80;57.61;94631.75;4142174;28;20668;-51
2022/05/02 02:17:59;;;;;;;4.57;3.88;;;;;;;12.71;57.25;94627.50;4136627;28;20050;-52
2022/05/02 02:20:00;;;;;;;7.05;4.25;;;;;;;12.58;58.06;94625.44;4140256;28;20073;-53
2022/05/02 02:24:33;;;;;;;4.75;4.05;;;;;;;12.42;58.82;94625.56;4127774;28;20199;-52
2022/05/02 02:26:34;;;;;;;8.98;4.55;;;;;;;12.46;58.51;94619.78;4126082;28;20047;-50
2022/05/02 02:28:38;;;;;;;4.95;4.35;;;;;;;12.56;58.21;94624.84;4125934;28;20538;-54
2022/05/02 02:30:40;;;;;;;7.20;4.63;;;;;;;12.61;58.03;94619.88;4141468;28;20459;-54
2022/05/02 02:32:41;;;;;;;7.13;5.07;;;;;;;12.60;58.17;94612.16;4142389;28;20092;-51
2022/05/02 02:34:42;;;;;;;6.13;4.85;;;;;;;12.52;58.18;94612.19;4141261;28;20045;-50
2022/05/02 02:36:45;;;;;;;6.05;4.60;;;;;;;12.48;58.75;94611.75;4142136;28;20363;-51
2022/05/02 02:38:46;;;;;;;6.13;4.57;;;;;;;12.44;58.73;94602.56;4142771;28;20468;-55
2022/05/02 02:40:48;;;;;;;8.15;4.85;;;;;;;12.44;58.74;94600.75;4145340;28;20427;-51
2022/05/02 02:42:50;;;;;;;7.75;4.90;;;;;;;12.42;58.40;94599.28;4145008;28;20509;-51
2022/05/02 02:44:52;;;;;;;5.85;5.10;;;;;;;12.37;59.10;94598.97;4145375;28;20080;-49
2022/05/02 02:46:53;;;;;;;9.65;4.90;;;;;;;12.38;58.77;94595.38;4145291;28;20049;-49
2022/05/02 02:48:55;;;;;;;6.75;5.35;;;;;;;12.29;58.99;94605.09;4144857;28;20057;-54
2022/05/02 02:51:00;;;;;;;6.97;5.10;;;;;;;12.31;59.10;94599.69;4145444;28;20122;-53
2022/05/02 02:53:02;;;;;;;6.53;5.65;;;;;;;12.25;59.49;94595.91;4144158;28;20062;-54
2022/05/02 02:55:05;;;;;;;6.13;5.35;;;;;;;12.19;59.52;94596.59;4144951;28;20054;-53
2022/05/02 02:57:06;;;;;;;7.25;4.93;;;;;;;12.22;59.65;94607.59;4145012;28;20140;-54
2022/05/02 02:59:08;;;;;;;7.03;5.40;;;;;;;12.28;59.60;94598.19;4145151;28;20111;-51
2022/05/02 03:01:10;;;;;;;6.72;5.20;;;;;;;12.23;59.61;94592.66;4145213;28;20132;-54
2022/05/02 03:03:12;;;;;;;9.20;5.70;;;;;;;12.23;59.44;94590.03;4143189;28;20160;-53
2022/05/02 03:07:34;;;;;;;7.85;5.68;;;;;;;12.17;59.95;94593.31;4143711;28;20045;-50
2022/05/02 03:09:37;;;;;;;8.27;5.78;;;;;;;12.10;60.10;94587.94;4143463;28;20433;-51
2022/05/02 03:11:38;;;;;;;8.18;6.28;;;;;;;11.91;60.43;94591.78;4144791;28;20100;-50
2022/05/02 03:13:40;;;;;;;9.88;6.47;;;;;;;11.83;60.87;94586.53;4144941;28;20049;-53
2022/05/02 03:15:42;;;;;;;7.82;6.10;;;;;;;11.72;61.10;94589.53;4145150;28;20281;-52
2022/05/02 03:17:44;;;;;;;9.15;6.25;;;;;;;11.73;61.20;94585.94;4144570;28;20443;-55
2022/05/02 03:19:45;;;;;;;7.80;5.78;;;;;;;11.79;61.07;94591.31;4140146;28;20111;-54
2022/05/02 03:21:47;;;;;;;6.72;6.00;;;;;;;11.83;60.99;94586.53;4144754;28;20136;-51
2022/05/02 03:23:49;;;;;;;7.38;5.97;;;;;;;11.88;60.94;94589.50;4143519;28;20080;-53
2022/05/02 03:25:50;;;;;;;9.02;5.75;;;;;;;11.95;60.84;94590.47;4144922;28;20057;-54
2022/05/02 03:27:52;;;;;;;8.70;5.47;;;;;;;11.94;60.82;94586.22;4144769;28;20068;-55
2022/05/02 03:29:54;;;;;;;6.95;6.10;;;;;;;11.91;60.71;94588.34;4144496;28;20127;-55
2022/05/02 03:31:55;;;;;;;7.35;5.90;;;;;;;11.81;61.24;94591.97;4144921;28;20049;-54
2022/05/02 03:33:57;;;;;;;7.50;5.75;;;;;;;11.72;61.38;94590.34;4144424;28;20132;-53
2022/05/02 03:35:59;;;;;;;7.43;5.78;;;;;;;11.78;61.52;94587.03;4144825;28;20046;-52
2022/05/02 03:38:01;;;;;;;6.72;5.50;;;;;;;11.85;61.23;94592.44;4143285;28;20054;-52
2022/05/02 03:40:03;;;;;;;6.60;5.43;;;;;;;11.76;61.31;94583.75;4144440;28;20090;-51
2022/05/02 03:42:05;;;;;;;9.73;5.82;;;;;;;11.63;61.70;94586.91;4143192;28;20058;-49
2022/05/02 03:44:07;;;;;;;10.32;5.75;;;;;;;11.54;62.02;94589.75;4144525;28;20100;-51
2022/05/02 03:46:09;;;;;;;9.30;5.82;;;;;;;11.46;61.97;94580.91;4144745;28;20403;-50
2022/05/02 03:48:10;;;;;;;14.20;6.07;;;;;;;11.54;62.06;94587.13;4144017;28;20546;-51
2022/05/02 03:50:12;;;;;;;10.88;6.35;;;;;;;11.54;62.27;94587.94;4143470;28;20118;-51
2022/05/02 03:52:14;;;;;;;8.77;5.78;;;;;;;11.69;61.78;94593.31;4144279;28;20116;-54
2022/05/02 03:54:16;;;;;;;7.85;5.60;;;;;;;11.72;61.52;94600.03;4142759;28;20108;-50
2022/05/02 03:56:17;;;;;;;8.45;5.97;;;;;;;11.74;61.32;94592.81;4144362;28;20054;-53
2022/05/02 03:58:19;;;;;;;9.25;6.07;;;;;;;11.72;61.34;94595.59;4144344;28;20046;-53
2022/05/02 04:00:21;;;;;;;8.13;5.57;;;;;;;11.73;61.41;94592.00;4144275;28;20054;-51
2022/05/02 04:02:26;;;;;;;8.05;5.60;;;;;;;11.78;61.21;94587.03;4144185;28;20115;-51
2022/05/02 04:04:28;;;;;;;9.75;5.70;;;;;;;11.88;60.85;94592.94;4143872;28;20542;-52
2022/05/02 04:06:30;;;;;;;7.28;5.85;;;;;;;11.98;60.66;94594.56;4144188;28;20057;-50
2022/05/02 04:08:32;;;;;;;9.82;5.57;;;;;;;11.89;60.75;94593.75;4142512;28;20402;-50
2022/05/02 04:10:34;;;;;;;8.20;5.28;;;;;;;11.74;61.36;94592.81;4144142;28;20049;-54
2022/05/02 04:12:39;;;;;;;7.07;5.47;;;;;;;11.88;60.66;94592.94;4144175;28;20072;-52
2022/05/02 04:14:41;;;;;;;7.95;5.43;;;;;;;11.87;60.14;94596.56;4144057;28;20061;-53
2022/05/02 04:16:43;;;;;;;5.93;5.28;;;;;;;11.93;60.22;94600.31;4143697;28;20061;-53
2022/05/02 04:18:46;;;;;;;7.78;5.47;;;;;;;11.92;60.31;94605.75;4143234;28;20057;-56
2022/05/02 04:20:47;;;;;;;5.40;4.68;;;;;;;11.91;59.99;94596.22;4132054;28;20372;-59
2022/05/02 04:22:49;;;;;;;7.28;6.07;;;;;;;11.93;60.03;94602.13;4126740;28;20607;-55
2022/05/02 04:24:51;;;;;;;6.50;5.53;;;;;;;11.96;60.13;94600.00;4127398;28;20090;-52
2022/05/02 04:26:54;;;;;;;5.78;4.82;;;;;;;11.94;59.82;94601.97;4127887;28;20189;-58
2022/05/02 04:28:56;;;;;;;5.72;4.70;;;;;;;12.03;59.73;94602.75;4129072;28;20061;-55
2022/05/02 04:30:58;;;;;;;9.30;5.57;;;;;;;12.17;59.11;94604.66;4143980;28;20140;-55
2022/05/02 04:33:01;;;;;;;7.28;4.93;;;;;;;12.05;58.84;94606.03;4143413;28;20057;-55
2022/05/02 04:35:04;;;;;;;7.30;4.55;;;;;;;12.11;58.87;94601.88;4143699;28;20208;-52
2022/05/02 04:37:07;;;;;;;9.63;4.85;;;;;;;12.09;59.11;94602.06;4140360;28;20554;-51
2022/05/02 04:39:09;;;;;;;7.90;5.00;;;;;;;12.20;58.76;94604.31;4133203;28;20497;-55
2022/05/02 04:41:13;;;;;;;7.75;4.97;;;;;;;12.35;58.66;94606.22;4143508;28;20137;-54
2022/05/02 04:43:15;;;;;;;9.75;5.10;;;;;;;12.52;57.98;94592.00;4142636;28;20060;-55
2022/05/02 04:45:17;;;;;;;6.53;4.85;;;;;;;12.50;57.64;94605.31;4143725;28;20123;-50
2022/05/02 04:47:19;;;;;;;6.95;4.30;;;;;;;12.61;57.49;94606.72;4142666;28;20512;-48
2022/05/02 04:49:28;;;;;;;8.82;4.63;;;;;;;12.52;57.30;94607.78;4127153;28;20130;-51
2022/05/02 04:51:30;;;;;;;8.70;4.30;;;;;;;12.45;57.51;94602.41;4127173;28;20595;-50
2022/05/02 04:53:32;;;;;;;5.82;4.90;;;;;;;12.44;57.56;94605.19;4125923;28;20058;-49
2022/05/02 04:55:34;;;;;;;7.20;5.10;;;;;;;12.42;57.46;94600.09;4127120;28;20054;-53
2022/05/02 04:57:36;;;;;;;8.07;4.93;;;;;;;12.55;57.17;94598.72;4127215;28;20148;-54
2022/05/02 04:59:38;;;;;;;7.00;5.10;;;;;;;12.61;56.90;94595.41;4126796;28;20096;-54
2022/05/02 05:01:40;;;;;;;11.35;5.18;;;;;;;12.67;57.04;94592.91;4127103;28;20133;-54
2022/05/02 05:03:42;;;;;;;7.50;5.32;;;;;;;12.64;57.01;94595.03;4132112;28;20153;-54
2022/05/02 05:05:44;;;;;;;7.85;5.25;;;;;;;12.54;57.06;94599.69;4139375;28;20128;-54
2022/05/02 05:07:46;;;;;;;7.95;4.97;;;;;;;12.53;57.21;94598.88;4142744;28;20141;-50
2022/05/02 05:09:48;;;;;;;7.68;5.00;;;;;;;12.65;57.33;94594.06;4142382;28;20474;-55
2022/05/02 05:12:05;;;;;;;8.95;5.07;;;;;;;12.80;56.41;94600.19;4143155;28;20050;-53
2022/05/02 05:16:47;;;;;;;8.50;5.20;;;;;;;12.94;55.96;94582.03;4141928;28;20489;-53
2022/05/02 05:19:20;;;;;;;12.52;5.30;;;;;;;12.85;55.92;94587.34;4157325;28;20133;-52
2022/05/02 05:21:25;;;;;;;8.07;4.90;;;;;;;12.87;56.23;94580.09;4134184;28;20053;-52
2022/05/02 05:23:46;;;;;;;7.35;4.88;;;;;;;13.00;55.85;94590.03;4140633;28;20398;-53
2022/05/02 05:26:24;;;;;;;6.57;5.13;;;;;;;12.97;55.64;94582.50;4141607;28;20375;-55
2022/05/02 05:28:50;;;;;;;9.35;5.30;;;;;;;13.08;55.35;94578.63;4141642;28;20057;-52
2022/05/02 05:30:57;;;;;;;11.07;5.88;;;;;;;13.14;55.36;94583.16;4141548;28;20605;-52
2022/05/02 05:33:26;;;;;;;6.75;5.40;;;;;;;13.20;54.98;94585.09;4141109;28;20203;-54
2022/05/02 05:35:50;;;;;;;9.23;5.63;;;;;;;13.32;54.51;94582.88;4142679;28;20041;-52
2022/05/02 05:38:03;;;;;;;6.95;5.88;;;;;;;13.30;54.60;94592.78;4141688;28;20247;-52
2022/05/02 05:40:25;;;;;;;8.80;5.68;;;;;;;13.28;54.74;94587.69;4142819;28;20518;-52
2022/05/02 05:42:45;;;;;;;8.15;6.10;;;;;;;13.41;54.31;94586.25;4142851;28;20581;-50
2022/05/02 05:45:09;;;;;;;9.85;6.75;;;;;;;13.54;54.01;94589.09;4142629;28;20049;-53
2022/05/02 05:47:51;;;;;;;10.35;6.32;;;;;;;13.43;53.83;94582.44;4141444;28;20061;-53
2022/05/02 05:50:24;;;;;;;11.50;6.05;;;;;;;13.44;53.60;94588.53;4126082;28;20533;-54
2022/05/02 05:53:03;;;;;;;10.98;5.57;;;;;;;13.29;53.90;94584.06;4126220;28;20552;-54
2022/05/02 05:55:06;;;;;;;7.63;6.10;;;;;;;13.50;53.85;94580.72;4126790;28;20054;-54
2022/05/02 05:57:17;;;;;;;7.38;6.00;;;;;;;13.63;53.82;94577.47;4126967;28;20050;-54
2022/05/02 05:59:32;;;;;;;8.38;5.57;;;;;;;13.70;53.23;94590.72;4141405;28;20049;-50
2022/05/02 06:01:45;;;;;;;9.32;5.57;;;;;;;13.84;53.00;94579.38;4126531;28;20054;-55
2022/05/02 06:04:02;;;;;;;9.53;5.43;;;;;;;13.95;52.77;94583.38;4141082;28;20205;-52
2022/05/02 06:06:04;;;;;;;9.50;5.32;;;;;;;14.01;52.77;94576.56;4126447;28;20066;-54
2022/05/02 06:08:09;;;;;;;8.65;5.53;;;;;;;14.19;52.96;94579.63;4124930;28;20543;-53
2022/05/02 06:10:11;;;;;;;9.30;5.80;;;;;;;14.17;52.63;94576.34;4126435;28;20050;-51
2022/05/02 06:12:13;;;;;;;7.10;5.38;;;;;;;14.23;52.87;94569.53;4126506;28;20091;-52
2022/05/02 06:14:17;;;;;;;6.47;4.87;;;;;;;14.21;52.55;94568.91;4126091;28;20046;-54
2022/05/02 06:18:42;;;;;;;7.53;4.63;;;;;;;13.93;53.59;94567.75;4125749;28;19929;-54
2022/05/02 06:20:45;;;;;;;9.90;4.68;;;;;;;13.51;54.14;94581.56;4125765;28;20050;-52
2022/05/02 06:22:47;;;;;;;7.82;4.72;;;;;;;13.71;54.63;94579.22;4141610;28;20264;-55
2022/05/02 06:24:49;;;;;;;9.88;4.30;;;;;;;13.89;53.71;94577.00;4141842;28;20058;-54
2022/05/02 06:26:52;;;;;;;14.33;5.17;;;;;;;14.07;53.22;94573.22;4142796;28;20675;-55
2022/05/02 06:28:54;;;;;;;11.75;4.53;;;;;;;14.10;52.58;94570.19;4142678;28;20050;-54
2022/05/02 06:31:00;;;;;;;12.25;4.55;;;;;;;14.25;52.37;94573.63;4142601;28;20049;-54
2022/05/02 06:33:08;;;;;;;7.30;4.35;;;;;;;14.17;52.41;94575.53;4142003;28;20137;-53
2022/05/02 06:35:10;;;;;;;6.97;4.60;;;;;;;13.92;52.50;94568.75;4140985;28;20112;-53
2022/05/02 06:37:21;;;;;;;7.88;4.53;;;;;;;13.72;53.73;94567.66;4142518;28;20050;-54
2022/05/02 06:39:50;;;;;;;6.53;4.20;;;;;;;13.70;53.64;94557.34;4140339;28;20050;-52
2022/05/02 06:41:55;;;;;;;8.02;4.57;;;;;;;13.73;53.82;94564.84;4142107;28;20412;-53
2022/05/02 06:44:28;;;;;;;11.20;4.60;;;;;;;13.98;53.23;94561.13;4141994;28;20061;-53
2022/05/02 06:46:44;;;;;;;9.88;4.82;;;;;;;14.34;52.73;94567.22;4138816;28;20062;-53
2022/05/02 06:48:56;;;;;;;11.43;4.90;;;;;;;14.42;51.55;94558.41;4139939;28;20049;-56
2022/05/02 06:51:27;;;;;;;5.63;4.30;;;;;;;14.36;52.50;94558.34;4142282;28;20096;-52
2022/05/02 06:53:59;;;;;;;7.10;5.20;;;;;;;14.54;51.29;94551.66;4141424;28;20049;-52
2022/05/02 06:56:15;;;;;;;10.30;5.00;;;;;;;14.72;51.08;94538.06;4141131;28;20049;-52
2022/05/02 06:58:35;;;;;;;9.05;5.28;;;;;;;14.89;50.36;94551.00;4157119;28;20107;-54
2022/05/02 07:00:43;;;;;;;6.60;5.15;;;;;;;14.91;49.81;94544.53;4142488;28;20045;-55
2022/05/02 07:03:03;;;;;;;7.97;5.85;;;;;;;14.82;49.67;94555.38;4142141;28;20056;-57
2022/05/02 07:05:11;;;;;;;8.70;6.05;;;;;;;14.99;49.44;94550.69;4142504;28;20153;-54
2022/05/02 07:07:37;;;;;;;9.48;6.65;;;;;;;14.92;50.06;94537.44;4142139;28;20062;-55
2022/05/02 07:09:48;;;;;;;7.60;6.60;;;;;;;14.89;49.87;94535.19;4139224;28;20136;-51
2022/05/02 07:12:00;;;;;;;10.85;6.60;;;;;;;14.89;49.52;94536.00;4140787;28;20601;-51
2022/05/02 07:14:32;;;;;;;10.07;6.15;;;;;;;14.96;49.32;94528.13;4142191;28;20096;-54
2022/05/02 07:16:41;;;;;;;9.18;6.80;;;;;;;15.04;49.67;94532.47;4142768;28;20053;-49
2022/05/02 07:18:49;;;;;;;8.52;6.57;;;;;;;15.22;49.31;94526.72;4140780;28;20058;-56
2022/05/02 07:21:09;;;;;;;8.70;6.55;;;;;;;15.35;48.52;94540.81;4142020;28;20119;-54
2022/05/02 07:23:50;;;;;;;9.60;7.10;;;;;;;15.39;48.49;94541.25;4136813;28;20794;-55
2022/05/02 07:26:05;;;;;;;10.40;6.95;;;;;;;15.41;48.75;94538.44;4130461;28;20061;-51
2022/05/02 07:28:31;;;;;;;8.80;6.50;;;;;;;15.35;48.51;94529.44;4129059;28;20050;-50
2022/05/02 07:30:32;;;;;;;7.70;6.78;;;;;;;15.25;47.94;94539.53;4141609;28;20105;-55
2022/05/02 07:32:35;;;;;;;10.52;6.40;;;;;;;15.22;48.07;94524.88;4144585;28;20065;-52
2022/05/02 07:34:39;;;;;;;7.20;6.10;;;;;;;15.24;48.05;94532.63;4128495;28;20093;-52
2022/05/02 07:36:40;;;;;;;;;;;;;;;15.26;48.10;94522.69;4129433;28;20116;-51
2022/05/02 07:38:47;;;;;;;7.10;6.22;;;;;;;15.20;48.71;94524.25;4125841;28;19922;-54
2022/05/02 07:43:10;;;;;;;8.18;6.10;;;;;;;15.07;48.37;94524.16;4143611;28;20058;-54
2022/05/02 07:45:14;;;;;;;6.78;5.32;;;;;;;14.95;48.75;94527.31;4143428;28;20395;-55
2022/05/02 07:47:15;;;;;;;;;;;;;;;14.96;49.02;94533.41;4143244;28;20136;-55
2022/05/02 07:49:26;;;;;;;8.88;5.72;;;;;;;14.92;49.36;94534.78;4144731;28;20324;-56
2022/05/02 07:51:28;;;;;;;6.65;6.05;;;;;;;14.93;49.23;94537.25;4143796;28;20046;-55
2022/05/02 07:53:30;;;;;;;8.77;6.07;;;;;;;14.97;49.44;94539.50;4143827;28;20426;-54
2022/05/02 07:55:33;;;;;;;6.72;6.00;;;;;;;15.02;49.12;94540.56;4143509;28;20509;-53
2022/05/02 07:57:37;;;;;;;9.88;5.88;;;;;;;15.04;49.02;94541.19;4143382;28;20050;-51
2022/05/02 07:59:40;;;;;;;8.25;5.80;;;;;;;15.13;48.83;94544.50;4143113;28;20085;-53
2022/05/02 08:01:42;;;;;;;5.05;4.55;;;;;;;15.17;48.54;94550.25;4144427;28;20073;-54
2022/05/02 08:03:44;;;;;;;8.95;5.68;;;;;;;15.25;48.53;94548.28;4144089;28;20124;-53
2022/05/02 08:05:49;;;;;;;5.65;5.00;;;;;;;15.35;47.81;94543.44;4144752;28;20529;-54
2022/05/02 08:07:54;;;;;;;7.80;4.78;;;;;;;15.38;47.87;94541.44;4142282;28;20054;-55
2022/05/02 08:10:07;;;;;;;8.30;5.28;;;;;;;15.48;47.81;94553.28;4143022;28;20045;-54
2022/05/02 08:12:16;;;;;;;9.68;5.32;;;;;;;15.57;47.35;94557.44;4144398;28;20108;-52
2022/05/02 08:14:25;;;;;;;6.50;5.28;;;;;;;15.72;47.01;94549.44;4144247;28;20104;-52
2022/05/02 08:16:32;;;;;;;8.05;6.28;;;;;;;16.07;46.72;94545.97;4142814;28;20458;-51
2022/05/02 08:18:58;;;;;;;7.43;6.05;;;;;;;16.36;46.26;94542.19;4143976;28;20533;-56
2022/05/02 08:21:07;;;;;;;7.43;5.47;;;;;;;16.65;45.00;94541.06;4140529;28;20352;-56
2022/05/02 08:29:20;;;;;;;6.72;5.25;;;;;;;16.55;44.34;94538.78;4143897;28;20127;-53
2022/05/02 08:31:34;;;;;;;8.15;5.88;;;;;;;16.84;44.35;94536.03;4143996;28;20054;-54
2022/05/02 08:33:41;;;;;;;11.93;5.72;;;;;;;16.98;43.66;94535.03;4143652;28;20050;-50
2022/05/02 08:35:59;;;;;;;6.38;5.55;;;;;;;16.86;43.16;94537.44;4142049;28;20523;-55
2022/05/02 08:38:13;;;;;;;6.03;5.32;;;;;;;16.89;42.97;94533.59;4140956;28;20294;-52
2022/05/02 08:40:23;;;;;;;10.68;5.70;;;;;;;16.67;43.27;94533.75;4143529;28;20119;-54
2022/05/02 08:42:41;;;;;;;7.63;5.40;;;;;;;16.70;42.64;94533.31;4143839;28;20178;-53
2022/05/02 08:45:12;;;;;;;6.72;5.65;;;;;;;16.95;42.25;94541.53;4143647;28;20101;-54
2022/05/02 08:47:32;;;;;;;7.00;6.30;;;;;;;17.05;42.47;94522.59;4143661;28;20053;-55
2022/05/02 08:50:11;;;;;;;6.93;5.70;;;;;;;17.06;42.05;94521.59;4136949;28;20068;-55
2022/05/02 08:52:16;;;;;;;12.18;5.72;;;;;;;16.85;41.35;94512.00;4143392;28;20064;-55
2022/05/02 08:54:38;;;;;;;7.13;6.22;;;;;;;16.96;41.62;94518.53;4141650;28;20130;-52
2022/05/02 08:57:19;;;;;;;7.30;6.20;;;;;;;17.09;41.39;94501.84;4143084;28;20053;-54
2022/05/02 08:59:58;;;;;;;7.55;6.15;;;;;;;17.07;41.01;94503.88;4141484;28;20175;-51
2022/05/02 09:02:33;;;;;;;8.02;5.45;;;;;;;17.17;40.92;94499.81;4141708;28;20054;-53
2022/05/02 09:05:17;;;;;;;8.75;6.13;;;;;;;17.47;40.48;94502.03;4142828;28;20497;-52
2022/05/02 09:07:39;;;;;;;12.95;6.75;;;;;;;17.80;39.96;94503.78;4142850;28;20128;-55
2022/05/02 09:09:59;;;;;;;8.18;5.88;;;;;;;18.00;39.31;94511.69;4137922;28;20145;-56
2022/05/02 09:12:35;;;;;;;7.07;5.15;;;;;;;18.06;38.46;94497.59;4143485;28;20062;-55
2022/05/02 09:15:01;;;;;;;6.55;4.85;;;;;;;17.99;39.05;94497.63;4143138;28;20054;-55
2022/05/02 09:17:25;;;;;;;9.50;5.45;;;;;;;17.86;39.00;94505.63;4143272;28;20138;-52
2022/05/02 09:19:45;;;;;;;6.90;5.40;;;;;;;17.62;38.87;94507.09;4142531;28;20081;-53
2022/05/02 09:22:17;;;;;;;6.38;5.30;;;;;;;17.90;38.55;94496.25;4133460;28;20058;-55
2022/05/02 09:24:43;;;;;;;8.23;5.00;;;;;;;18.11;37.89;94489.84;4127398;28;20050;-51
2022/05/02 09:26:57;;;;;;;6.30;4.60;;;;;;;18.02;37.99;94488.44;4157338;28;20529;-53
2022/05/02 09:29:27;;;;;;;6.37;4.53;;;;;;;18.05;37.21;94480.09;4142852;28;20123;-54
2022/05/02 09:32:08;;;;;;;7.25;4.50;;;;;;;17.78;36.71;94474.81;4141565;28;20279;-53
2022/05/02 09:34:33;;;;;;;5.95;3.85;;;;;;;17.59;37.32;94476.53;4140265;28;20050;-53
2022/05/02 09:36:42;;;;;;;6.43;4.13;;;;;;;17.42;37.59;94480.63;4140431;28;20069;-52
2022/05/02 09:38:51;;;;;;;7.72;3.92;;;;;;;17.40;37.90;94482.66;4138956;28;20054;-53
2022/05/02 09:41:01;;;;;;;5.70;3.60;;;;;;;17.50;36.83;94477.75;4140292;28;20131;-51
2022/05/02 09:43:11;;;;;;;5.88;4.20;;;;;;;17.54;37.58;94473.69;4123960;28;20050;-54
2022/05/02 09:50:34;;;;;;;6.25;4.40;;;;;;;17.69;37.16;94462.84;4124563;28;20050;-55
2022/05/02 09:52:50;;;;;;;10.02;4.00;;;;;;;17.79;36.85;94462.41;4124325;28;20112;-50
2022/05/02 09:57:57;;;;;;;;;;;;;;;17.63;36.18;94455.72;4113753;28;20541;-54
2022/05/02 10:02:28;;;;;;;4.88;3.63;;;;;;;17.53;35.98;94447.41;4124260;28;20161;-58
2022/05/02 10:04:36;;;;;;;3.80;3.20;;;;;;;17.45;35.73;94442.34;4109897;28;20130;-55
2022/05/02 10:06:38;;;;;;;8.02;3.70;;;;;;;17.45;35.95;94452.94;4125087;28;20354;-51
2022/05/02 10:08:50;;;;;;;6.97;2.95;;;;;;;17.48;35.81;94444.56;4125024;28;20053;-52
2022/05/02 10:11:07;;;;;;;5.38;3.45;;;;;;;17.38;35.58;94442.38;4126376;28;20129;-56
2022/05/02 10:13:27;;;;;;;3.25;2.90;;;;;;;17.32;34.58;94438.69;4126516;28;20053;-54
2022/05/02 10:15:41;;;;;;;5.07;2.95;;;;;;;17.34;34.99;94443.81;4126811;28;20414;-56
2022/05/02 10:18:24;;;;;;;6.40;3.20;;;;;;;17.34;35.14;94441.97;4126527;28;20062;-55
2022/05/02 10:20:51;;;;;;;6.18;3.42;;;;;;;17.44;35.97;94440.72;4125538;28;20050;-55
2022/05/02 10:23:15;;;;;;;7.72;3.72;;;;;;;17.43;35.85;94434.59;4124870;28;20062;-53
2022/05/02 10:25:41;;;;;;;4.97;3.58;;;;;;;17.35;36.21;94440.13;4128703;28;20042;-56
2022/05/02 10:28:14;;;;;;;6.90;3.80;;;;;;;17.24;37.30;94448.69;4139934;28;20054;-54
2022/05/02 10:30:18;;;;;;;6.57;4.28;;;;;;;17.27;37.09;94440.31;4142889;28;20120;-57
2022/05/02 10:32:46;;;;;;;6.68;3.75;;;;;;;17.28;37.40;94437.50;4142443;28;20058;-54
2022/05/02 10:34:52;;;;;;;5.75;3.78;;;;;;;17.34;37.13;94444.59;4142406;28;20057;-53
2022/05/02 10:36:55;;;;;;;4.78;4.10;;;;;;;17.56;36.71;94444.34;4131825;28;20118;-50